createdAt,value
2018-04-01T00:00:19.643Z,5.28
2018-04-01T00:02:51.446Z,5.26
2018-04-01T00:05:23.309Z,5.44
2018-04-01T00:07:54.809Z,5.47
2018-04-01T00:10:26.610Z,5.59
2018-04-01T00:12:58.005Z,5.58
2018-04-01T00:15:29.524Z,5.38
2018-04-01T00:18:01.424Z,5.34
2018-04-01T00:20:32.830Z,5.45
2018-04-01T00:23:04.376Z,5.46
2018-04-01T00:25:36.286Z,5.46
2018-04-01T00:28:08.056Z,5.49
2018-04-01T00:30:39.616Z,5.39
2018-04-01T00:33:12.519Z,5.41
2018-04-01T00:35:44.392Z,5.47
2018-04-01T00:38:15.904Z,5.56
2018-04-01T00:40:48.467Z,5.62
2018-04-01T00:43:19.986Z,5.56
2018-04-01T00:45:51.447Z,5.44
2018-04-01T00:48:23.145Z,5.54
2018-04-01T00:50:54.563Z,5.64
2018-04-01T00:53:27.063Z,5.38
2018-04-01T00:55:58.468Z,5.35
2018-04-01T00:58:30.787Z,5.27
2018-04-01T01:01:02.233Z,5.25
2018-04-01T01:03:33.724Z,5.31
2018-04-01T01:06:05.143Z,5.43
2018-04-01T01:08:36.613Z,5.44
2018-04-01T01:11:08.368Z,5.37
2018-04-01T01:13:40.207Z,5.43
2018-04-01T01:16:12.004Z,5.35
2018-04-01T01:18:43.497Z,5.30
2018-04-01T01:21:15.853Z,5.43
2018-04-01T01:23:47.232Z,5.32
2018-04-01T01:26:18.629Z,5.20
2018-04-01T01:28:50.168Z,5.24
2018-04-01T01:31:21.742Z,5.52
2018-04-01T01:33:53.371Z,5.41
2018-04-01T01:36:24.757Z,5.47
2018-04-01T01:38:57.042Z,5.49
2018-04-01T01:41:28.504Z,5.20
2018-04-01T01:44:00.576Z,5.29
2018-04-01T01:46:32.045Z,5.32
2018-04-01T01:49:03.446Z,5.27
2018-04-01T01:51:35.756Z,5.08
2018-04-01T01:54:07.457Z,5.24
2018-04-01T01:56:39.331Z,5.34
2018-04-01T01:59:12.472Z,5.36
2018-04-01T02:01:44.736Z,5.28
2018-04-01T02:04:16.670Z,5.18
2018-04-01T02:06:48.219Z,5.10
2018-04-01T02:09:19.977Z,5.21
2018-04-01T02:11:51.394Z,5.19
2018-04-01T02:14:23.439Z,5.25
2018-04-01T02:16:54.818Z,5.30
2018-04-01T02:19:26.249Z,5.26
2018-04-01T02:21:58.471Z,5.31
2018-04-01T02:24:30.522Z,5.40
2018-04-01T02:27:02.361Z,5.28
2018-04-01T02:29:34.393Z,5.49
2018-04-01T02:32:05.822Z,5.50
2018-04-01T02:34:37.230Z,5.28
2018-04-01T02:37:08.835Z,5.49
2018-04-01T02:39:40.606Z,5.50
2018-04-01T02:42:12.042Z,5.41
2018-04-01T02:44:44.564Z,5.27
2018-04-01T02:47:15.928Z,5.28
2018-04-01T02:49:47.603Z,5.33
2018-04-01T02:52:19.106Z,5.48
2018-04-01T02:54:50.783Z,5.44
2018-04-01T02:57:22.537Z,5.40
2018-04-01T02:59:54.515Z,5.43
2018-04-01T03:02:26.041Z,5.45
2018-04-01T03:04:57.563Z,5.34
2018-04-01T03:07:29.254Z,5.40
2018-04-01T03:10:00.617Z,5.43
2018-04-01T03:12:32.425Z,5.43
2018-04-01T03:15:05.919Z,5.50
2018-04-01T03:17:37.470Z,5.53
2018-04-01T03:20:10.303Z,5.57
2018-04-01T03:22:42.093Z,5.65
2018-04-01T03:25:13.542Z,5.63
2018-04-01T03:27:45.231Z,5.54
2018-04-01T03:30:17.056Z,5.48
2018-04-01T03:32:48.721Z,5.38
2018-04-01T03:35:20.105Z,5.38
2018-04-01T03:37:51.806Z,5.35
2018-04-01T03:40:23.192Z,5.41
2018-04-01T03:42:54.591Z,5.57
2018-04-01T03:45:26.063Z,5.45
2018-04-01T03:47:57.566Z,5.43
2018-04-01T03:50:29.202Z,5.50
2018-04-01T03:53:01.119Z,5.53
2018-04-01T03:55:32.801Z,5.59
2018-04-01T03:58:04.358Z,5.54
2018-04-01T04:00:36.162Z,5.51
2018-04-01T04:03:07.638Z,5.38
2018-04-01T04:05:39.213Z,5.39
2018-04-01T04:08:10.935Z,5.36
2018-04-01T04:10:42.470Z,5.27
2018-04-01T04:13:14.249Z,5.45
2018-04-01T04:15:46.078Z,5.40
2018-04-01T04:18:17.466Z,5.40
2018-04-01T04:20:49.091Z,5.54
2018-04-01T04:23:20.739Z,5.53
2018-04-01T04:25:52.397Z,5.55
2018-04-01T04:28:23.950Z,5.46
2018-04-01T04:30:55.644Z,5.37
2018-04-01T04:33:27.111Z,5.23
2018-04-01T04:35:58.854Z,5.22
2018-04-01T04:38:30.304Z,5.27
2018-04-01T04:41:01.690Z,5.18
2018-04-01T04:43:33.155Z,5.14
2018-04-01T04:46:04.585Z,5.17
2018-04-01T04:48:36.187Z,5.07
2018-04-01T04:51:07.594Z,5.09
2018-04-01T04:53:39.308Z,5.10
2018-04-01T04:56:10.673Z,5.23
2018-04-01T04:58:42.128Z,5.15
2018-04-01T05:01:13.649Z,5.22
2018-04-01T05:03:45.228Z,5.06
2018-04-01T05:06:17.080Z,5.11
2018-04-01T05:08:49.437Z,5.11
2018-04-01T05:11:21.119Z,5.05
2018-04-01T05:13:52.627Z,5.18
2018-04-01T05:16:24.507Z,5.20
2018-04-01T05:18:55.886Z,5.09
2018-04-01T05:21:27.485Z,4.97
2018-04-01T05:23:59.438Z,4.84
2018-04-01T05:26:31.114Z,4.88
2018-04-01T05:29:03.021Z,4.93
2018-04-01T05:31:34.561Z,5.04
2018-04-01T05:34:06.056Z,4.84
2018-04-01T05:36:37.874Z,4.95
2018-04-01T05:39:09.541Z,4.80
2018-04-01T05:41:42.437Z,4.89
2018-04-01T05:44:14.114Z,5.00
2018-04-01T05:46:46.123Z,4.92
2018-04-01T05:49:17.508Z,4.99
2018-04-01T05:51:48.921Z,5.02
2018-04-01T05:54:20.566Z,5.21
2018-04-01T05:56:51.938Z,5.35
2018-04-01T05:59:23.793Z,5.28
2018-04-01T06:01:55.753Z,5.24
2018-04-01T06:04:27.420Z,5.27
2018-04-01T06:06:58.896Z,5.58
2018-04-01T06:09:30.337Z,5.52
2018-04-01T06:12:02.841Z,5.63
2018-04-01T06:14:34.549Z,5.68
2018-04-01T06:17:06.207Z,5.85
2018-04-01T06:19:38.010Z,5.80
2018-04-01T06:22:10.426Z,5.89
2018-04-01T06:24:43.079Z,5.73
2018-04-01T06:27:14.682Z,5.73
2018-04-01T06:29:46.210Z,5.92
2018-04-01T06:32:18.486Z,5.77
2018-04-01T06:34:50.470Z,5.93
2018-04-01T06:37:22.049Z,5.90
2018-04-01T06:39:54.008Z,6.03
2018-04-01T06:42:25.437Z,6.04
2018-04-01T06:44:57.049Z,6.05
2018-04-01T06:47:29.271Z,5.95
2018-04-01T06:50:00.689Z,5.93
2018-04-01T06:52:33.771Z,5.91
2018-04-01T06:55:06.322Z,6.25
2018-04-01T06:57:39.422Z,6.30
2018-04-01T07:00:13.399Z,6.13
2018-04-01T07:02:45.075Z,5.90
2018-04-01T07:05:16.639Z,6.07
2018-04-01T07:07:48.157Z,5.95
2018-04-01T07:10:19.975Z,5.89
2018-04-01T07:12:53.531Z,6.05
2018-04-01T07:15:25.438Z,6.08
2018-04-01T07:17:58.081Z,6.04
2018-04-01T07:20:29.833Z,6.26
2018-04-01T07:23:02.224Z,6.22
2018-04-01T07:25:38.768Z,6.33
2018-04-01T07:28:11.368Z,6.52
2018-04-01T07:30:52.944Z,6.55
2018-04-01T07:33:25.453Z,6.48
2018-04-01T07:35:58.026Z,6.41
2018-04-01T07:38:30.677Z,6.48
2018-04-01T07:41:02.302Z,6.45
2018-04-01T07:43:35.462Z,6.60
2018-04-01T07:46:06.970Z,6.60
2018-04-01T07:48:39.932Z,6.46
2018-04-01T07:51:11.517Z,6.63
2018-04-01T07:53:43.123Z,6.77
2018-04-01T07:56:15.036Z,6.68
2018-04-01T07:58:50.543Z,6.83
2018-04-01T08:01:22.277Z,7.47
2018-04-01T08:03:54.794Z,7.49
2018-04-01T08:06:28.099Z,8.00
2018-04-01T08:09:00.465Z,7.60
2018-04-01T08:11:32.049Z,7.58
2018-04-01T08:14:04.093Z,7.76
2018-04-01T08:16:37.906Z,7.29
2018-04-01T08:19:10.077Z,7.59
2018-04-01T08:21:48.013Z,7.87
2018-04-01T08:24:19.952Z,7.75
2018-04-01T08:27:04.610Z,7.36
2018-04-01T08:29:39.293Z,7.34
2018-04-01T08:32:10.969Z,7.55
2018-04-01T08:34:45.509Z,7.80
2018-04-01T08:37:17.578Z,7.80
2018-04-01T08:39:49.597Z,7.89
2018-04-01T08:42:23.668Z,7.91
2018-04-01T08:44:56.021Z,8.11
2018-04-01T08:47:31.698Z,8.14
2018-04-01T08:50:13.400Z,8.41
2018-04-01T08:52:45.620Z,8.19
2018-04-01T08:55:18.219Z,8.33
2018-04-01T08:57:50.934Z,7.92
2018-04-01T09:00:22.707Z,8.22
2018-04-01T09:02:55.352Z,8.07
2018-04-01T09:05:27.348Z,8.39
2018-04-01T09:07:59.053Z,8.22
2018-04-01T09:10:41.764Z,8.40
2018-04-01T09:13:13.515Z,8.40
2018-04-01T09:15:45.230Z,8.39
2018-04-01T09:18:16.839Z,8.91
2018-04-01T09:20:49.816Z,9.18
2018-04-01T09:23:21.663Z,8.92
2018-04-01T09:25:53.641Z,8.77
2018-04-01T09:28:25.429Z,8.80
2018-04-01T09:30:56.922Z,8.69
2018-04-01T09:33:28.910Z,8.34
2018-04-01T09:36:01.857Z,8.34
2018-04-01T09:38:33.936Z,8.36
2018-04-01T09:41:05.681Z,8.14
2018-04-01T09:43:37.496Z,8.46
2018-04-01T09:46:09.527Z,8.56
2018-04-01T09:48:42.354Z,8.42
2018-04-01T09:51:15.599Z,8.13
2018-04-01T09:53:47.636Z,8.02
2018-04-01T09:56:22.039Z,8.17
2018-04-01T09:58:54.599Z,8.23
2018-04-01T10:01:27.632Z,8.15
2018-04-01T10:04:00.622Z,7.94
2018-04-01T10:06:34.279Z,7.97
2018-04-01T10:09:07.851Z,8.06
2018-04-01T10:11:41.237Z,8.07
2018-04-01T10:14:15.110Z,7.85
2018-04-01T10:16:48.436Z,8.17
2018-04-01T10:19:21.782Z,7.82
2018-04-01T10:21:55.858Z,7.56
2018-04-01T10:24:29.234Z,7.58
2018-04-01T10:27:02.748Z,7.51
2018-04-01T10:29:36.925Z,7.48
2018-04-01T10:32:10.782Z,7.60
2018-04-01T10:34:44.314Z,7.65
2018-04-01T10:37:18.952Z,7.89
2018-04-01T10:39:52.789Z,8.03
2018-04-01T10:42:26.478Z,7.68
2018-04-01T10:45:00.974Z,7.70
2018-04-01T10:47:36.662Z,7.87
2018-04-01T10:50:16.946Z,8.00
2018-04-01T10:52:51.375Z,7.84
2018-04-01T10:55:25.210Z,8.10
2018-04-01T10:57:57.202Z,8.18
2018-04-01T11:00:29.711Z,8.28
2018-04-01T11:03:01.798Z,8.22
2018-04-01T11:05:34.961Z,7.79
2018-04-01T11:08:07.408Z,8.21
2018-04-01T11:10:38.832Z,8.21
2018-04-01T11:13:10.231Z,8.42
2018-04-01T11:15:42.230Z,8.48
2018-04-01T11:18:13.826Z,8.99
2018-04-01T11:20:45.900Z,8.80
2018-04-01T11:23:18.058Z,8.73
2018-04-01T11:25:51.780Z,8.93
2018-04-01T11:28:23.991Z,9.44
2018-04-01T11:30:56.077Z,8.99
2018-04-01T11:33:30.216Z,9.39
2018-04-01T11:36:02.136Z,9.33
2018-04-01T11:38:33.709Z,9.04
2018-04-01T11:41:05.705Z,9.71
2018-04-01T11:43:37.714Z,10.04
2018-04-01T11:46:10.645Z,10.06
2018-04-01T11:48:42.365Z,10.19
2018-04-01T11:51:15.188Z,9.88
2018-04-01T11:53:49.624Z,10.09
2018-04-01T11:56:21.946Z,9.72
2018-04-01T11:58:53.653Z,10.29
2018-04-01T12:01:25.714Z,10.00
2018-04-01T12:03:57.420Z,10.33
2018-04-01T12:06:36.912Z,10.16
2018-04-01T12:09:09.061Z,10.11
2018-04-01T12:11:40.734Z,10.32
2018-04-01T12:14:12.649Z,10.39
2018-04-01T12:16:44.611Z,10.75
2018-04-01T12:19:17.032Z,10.31
2018-04-01T12:21:49.542Z,9.93
2018-04-01T12:24:21.749Z,9.75
2018-04-01T12:26:57.613Z,9.48
2018-04-01T12:29:29.755Z,10.21
2018-04-01T12:32:02.522Z,10.63
2018-04-01T12:34:34.255Z,10.56
2018-04-01T12:37:06.014Z,10.40
2018-04-01T12:39:37.421Z,10.33
2018-04-01T12:42:09.244Z,10.35
2018-04-01T12:44:40.818Z,10.64
2018-04-01T12:47:21.824Z,10.55
2018-04-01T12:49:54.710Z,10.15
2018-04-01T12:52:27.350Z,9.89
2018-04-01T12:54:59.457Z,9.88
2018-04-01T12:57:31.101Z,10.11
2018-04-01T13:00:06.859Z,9.98
2018-04-01T13:02:39.699Z,9.70
2018-04-01T13:05:11.629Z,9.68
2018-04-01T13:07:43.681Z,9.75
2018-04-01T13:10:18.604Z,10.08
2018-04-01T13:12:51.005Z,10.29
2018-04-01T13:15:22.912Z,10.47
2018-04-01T13:17:55.507Z,10.48
2018-04-01T13:20:27.802Z,10.47
2018-04-01T13:23:11.367Z,10.55
2018-04-01T13:25:51.686Z,10.30
2018-04-01T13:28:51.603Z,9.99
2018-04-01T13:31:24.834Z,9.91
2018-04-01T13:33:57.572Z,9.88
2018-04-01T13:36:29.467Z,9.76
2018-04-01T13:39:01.554Z,9.88
2018-04-01T13:41:33.118Z,9.42
2018-04-01T13:44:04.669Z,9.78
2018-04-01T13:46:36.314Z,9.54
2018-04-01T13:49:10.958Z,9.50
2018-04-01T13:51:43.383Z,9.75
2018-04-01T13:54:14.941Z,9.87
2018-04-01T13:56:46.560Z,10.23
2018-04-01T13:59:20.217Z,10.16
2018-04-01T14:01:54.741Z,10.38
2018-04-01T14:04:27.254Z,10.23
2018-04-01T14:06:59.668Z,10.61
2018-04-01T14:09:33.410Z,10.49
2018-04-01T14:12:06.339Z,10.30
2018-04-01T14:14:38.301Z,10.16
2018-04-01T14:17:10.242Z,10.00
2018-04-01T14:19:41.793Z,10.06
2018-04-01T14:22:14.741Z,10.13
2018-04-01T14:24:46.662Z,9.42
2018-04-01T14:27:22.164Z,9.52
2018-04-01T14:29:54.773Z,9.60
2018-04-01T14:32:30.772Z,9.23
2018-04-01T14:35:03.103Z,9.23
2018-04-01T14:37:37.604Z,9.16
2018-04-01T14:40:10.781Z,9.42
2018-04-01T14:42:43.237Z,9.69
2018-04-01T14:45:15.320Z,9.81
2018-04-01T14:47:47.565Z,9.79
2018-04-01T14:50:20.522Z,9.71
2018-04-01T14:52:52.518Z,9.62
2018-04-01T14:55:24.238Z,9.80
2018-04-01T14:57:55.669Z,9.89
2018-04-01T15:00:27.358Z,9.99
2018-04-01T15:02:59.237Z,9.95
2018-04-01T15:05:33.160Z,10.38
2018-04-01T15:08:04.560Z,9.53
2018-04-01T15:10:38.528Z,9.46
2018-04-01T15:13:11.148Z,8.82
2018-04-01T15:15:42.793Z,8.16
2018-04-01T15:18:14.705Z,7.70
2018-04-01T15:20:46.349Z,7.74
2018-04-01T15:23:17.806Z,7.82
2018-04-01T15:25:50.387Z,7.53
2018-04-01T15:28:21.818Z,7.48
2018-04-01T15:30:56.263Z,7.56
2018-04-01T15:33:27.812Z,7.82
2018-04-01T15:36:09.418Z,7.61
2018-04-01T15:38:45.198Z,7.84
2018-04-01T15:41:18.699Z,8.08
2018-04-01T15:43:50.624Z,7.99
2018-04-01T15:46:22.293Z,7.69
2018-04-01T15:48:53.982Z,7.60
2018-04-01T15:51:26.242Z,7.73
2018-04-01T15:53:58.211Z,7.61
2018-04-01T15:56:29.810Z,7.75
2018-04-01T15:59:01.719Z,7.70
2018-04-01T16:01:34.188Z,7.61
2018-04-01T16:04:06.036Z,7.56
2018-04-01T16:06:43.528Z,7.50
2018-04-01T16:09:16.440Z,7.46
2018-04-01T16:11:48.077Z,7.23
2018-04-01T16:14:20.524Z,7.27
2018-04-01T16:16:52.032Z,7.22
2018-04-01T16:19:25.346Z,7.33
2018-04-01T16:21:58.770Z,7.34
2018-04-01T16:24:32.408Z,7.28
2018-04-01T16:27:04.180Z,7.48
2018-04-01T16:29:35.893Z,7.52
2018-04-01T16:32:07.466Z,7.36
2018-04-01T16:34:40.780Z,7.42
2018-04-01T16:37:13.769Z,7.30
2018-04-01T16:39:45.541Z,7.41
2018-04-01T16:42:17.592Z,7.55
2018-04-01T16:44:49.748Z,7.42
2018-04-01T16:47:21.727Z,7.43
2018-04-01T16:49:54.572Z,7.35
2018-04-01T16:52:26.406Z,7.14
2018-04-01T16:54:57.834Z,7.17
2018-04-01T16:57:29.570Z,7.19
2018-04-01T17:00:02.330Z,7.27
2018-04-01T17:02:36.562Z,7.39
2018-04-01T17:05:08.661Z,7.40
2018-04-01T17:07:40.551Z,7.15
2018-04-01T17:10:12.319Z,7.12
2018-04-01T17:12:43.965Z,7.25
2018-04-01T17:15:15.639Z,7.14
2018-04-01T17:17:47.900Z,6.98
2018-04-01T17:20:20.345Z,7.11
2018-04-01T17:22:53.464Z,7.25
2018-04-01T17:25:42.534Z,7.11
2018-04-01T17:28:16.521Z,7.18
2018-04-01T17:30:49.790Z,7.17
2018-04-01T17:33:22.291Z,7.31
2018-04-01T17:35:53.930Z,7.36
2018-04-01T17:38:26.221Z,7.38
2018-04-01T17:40:58.500Z,7.39
2018-04-01T17:43:30.596Z,7.40
2018-04-01T17:46:02.251Z,7.46
2018-04-01T17:48:33.853Z,7.29
2018-04-01T17:51:06.418Z,7.31
2018-04-01T17:53:38.018Z,7.22
2018-04-01T17:56:10.047Z,7.28
2018-04-01T17:58:42.060Z,7.10
2018-04-01T18:01:13.967Z,6.71
2018-04-01T18:03:45.483Z,6.31
2018-04-01T18:06:17.276Z,6.09
2018-04-01T18:08:48.793Z,5.88
2018-04-01T18:11:20.559Z,5.78
2018-04-01T18:13:52.924Z,5.71
2018-04-01T18:16:25.390Z,5.63
2018-04-01T18:18:57.461Z,5.50
2018-04-01T18:21:29.440Z,5.46
2018-04-01T18:24:01.591Z,5.42
2018-04-01T18:26:33.186Z,5.34
2018-04-01T18:29:08.667Z,5.19
2018-04-01T18:31:41.674Z,5.00
2018-04-01T18:34:13.667Z,4.95
2018-04-01T18:36:46.089Z,4.89
2018-04-01T18:39:22.069Z,5.01
2018-04-01T18:41:54.034Z,5.37
2018-04-01T18:44:26.302Z,5.46
2018-04-01T18:46:58.263Z,5.32
2018-04-01T18:49:30.032Z,5.06
2018-04-01T18:52:03.151Z,4.82
2018-04-01T18:54:35.489Z,4.64
2018-04-01T18:57:07.446Z,4.49
2018-04-01T18:59:39.510Z,4.33
2018-04-01T19:02:11.116Z,4.21
2018-04-01T19:04:42.936Z,4.06
2018-04-01T19:07:14.765Z,4.05
2018-04-01T19:09:46.498Z,3.89
2018-04-01T19:12:18.588Z,3.84
2018-04-01T19:14:50.855Z,3.76
2018-04-01T19:17:30.322Z,3.73
2018-04-01T19:20:06.395Z,3.73
2018-04-01T19:22:40.779Z,3.80
2018-04-01T19:25:14.445Z,3.84
2018-04-01T19:27:48.190Z,3.89
2018-04-01T19:30:22.514Z,4.03
2018-04-01T19:32:56.183Z,4.22
2018-04-01T19:35:29.853Z,4.38
2018-04-01T19:38:04.037Z,4.57
2018-04-01T19:40:37.773Z,4.57
2018-04-01T19:43:11.674Z,4.64
2018-04-01T19:45:46.034Z,4.64
2018-04-01T19:48:19.807Z,4.74
2018-04-01T19:50:54.804Z,4.75
2018-04-01T19:53:32.989Z,4.82
2018-04-01T19:56:11.063Z,4.96
2018-04-01T19:58:49.910Z,5.02
2018-04-01T20:01:23.599Z,5.02
2018-04-01T20:04:11.573Z,4.89
2018-04-01T20:06:47.725Z,4.80
2018-04-01T20:09:26.568Z,4.78
2018-04-01T20:12:01.267Z,4.80
2018-04-01T20:14:35.390Z,4.78
2018-04-01T20:17:10.035Z,4.78
2018-04-01T20:19:44.057Z,4.77
2018-04-01T20:22:18.855Z,4.72
2018-04-01T20:24:54.010Z,4.70
2018-04-01T20:27:28.051Z,4.78
2018-04-01T20:30:03.209Z,4.87
2018-04-01T20:32:38.767Z,4.78
2018-04-01T20:35:13.622Z,4.66
2018-04-01T20:37:47.326Z,4.44
2018-04-01T20:40:20.976Z,4.31
2018-04-01T20:42:54.709Z,4.17
2018-04-01T20:45:31.062Z,4.19
2018-04-01T20:48:04.632Z,4.17
2018-04-01T20:50:38.051Z,4.28
2018-04-01T20:53:12.788Z,4.24
2018-04-01T20:55:46.210Z,4.18
2018-04-01T20:58:19.724Z,3.91
2018-04-01T21:00:53.906Z,4.02
2018-04-01T21:03:27.287Z,3.89
2018-04-01T21:06:00.976Z,3.90
2018-04-01T21:08:34.893Z,4.01
2018-04-01T21:11:08.589Z,4.15
2018-04-01T21:13:42.191Z,4.19
2018-04-01T21:16:19.430Z,4.11
2018-04-01T21:18:53.136Z,3.91
2018-04-01T21:21:26.482Z,3.72
2018-04-01T21:24:10.362Z,3.61
2018-04-01T21:26:44.151Z,3.49
2018-04-01T21:29:18.272Z,3.38
2018-04-01T21:31:51.780Z,3.35
2018-04-01T21:34:25.392Z,3.34
2018-04-01T21:39:24.330Z,3.13
2018-04-01T21:41:59.673Z,2.94
2018-04-01T21:44:33.341Z,2.97
2018-04-01T21:47:06.698Z,2.92
2018-04-01T21:49:40.521Z,2.93
2018-04-01T21:52:14.069Z,2.90
2018-04-01T21:54:51.609Z,2.81
2018-04-01T21:57:25.417Z,2.76
2018-04-01T21:59:59.434Z,2.74
2018-04-01T22:02:34.248Z,2.71
2018-04-01T22:05:09.707Z,2.60
2018-04-01T22:07:43.695Z,2.67
2018-04-01T22:10:22.073Z,2.67
2018-04-01T22:12:55.630Z,2.59
2018-04-01T22:15:28.957Z,2.61
2018-04-01T22:18:08.523Z,2.71
2018-04-01T22:20:42.457Z,2.99
2018-04-01T22:23:16.337Z,3.15
2018-04-01T22:25:50.194Z,3.34
2018-04-01T22:28:24.255Z,3.50
2018-04-01T22:30:57.900Z,3.76
2018-04-01T22:33:31.350Z,3.92
2018-04-01T22:36:05.256Z,4.06
2018-04-01T22:41:17.423Z,4.26
2018-04-01T22:43:52.933Z,4.36
2018-04-01T22:46:27.878Z,4.43
2018-04-01T22:49:07.448Z,4.50
2018-04-01T22:51:42.364Z,4.51
2018-04-01T22:54:16.428Z,4.64
2018-04-01T22:56:55.888Z,4.75
2018-04-01T22:59:32.258Z,4.74
2018-04-01T23:02:07.074Z,4.56
2018-04-01T23:04:42.235Z,4.74
2018-04-01T23:07:16.841Z,4.77
2018-04-01T23:09:51.682Z,4.84
2018-04-01T23:12:26.226Z,4.95
2018-04-01T23:15:00.110Z,4.76
2018-04-01T23:17:39.854Z,4.82
2018-04-01T23:20:13.737Z,4.78
2018-04-01T23:22:47.764Z,4.86
2018-04-01T23:25:21.694Z,4.97
2018-04-01T23:27:55.267Z,4.94
2018-04-01T23:30:30.406Z,5.16
2018-04-01T23:33:04.025Z,5.13
2018-04-01T23:35:37.970Z,5.22
2018-04-01T23:38:11.667Z,5.28
2018-04-01T23:40:45.348Z,5.29
2018-04-01T23:43:19.169Z,5.28
2018-04-01T23:45:52.900Z,5.27
2018-04-01T23:48:26.519Z,5.31
2018-04-01T23:51:00.589Z,5.25
2018-04-01T23:53:34.214Z,5.26
2018-04-01T23:56:11.101Z,5.31
2018-04-01T23:58:45.377Z,5.28
